Time;durP1;ratioP1;P1;durP2;ratioP2;P2;SDS_P1;SDS_P2;PMS_P1;PMS_P2;Temp;Humidity;BMP_temperature;BMP_pressure;BME280_temperature;BME280_humidity;BME280_pressure;Samples;Min_cycle;Max_cycle;Signal;HPM_P1;HPM_P2
2021/04/12 00:00:28;;;;;;;21.65;17.83;;;6.40;99.90;;;;;;4982303;28;20046;-68
2021/04/12 00:03:07;;;;;;;19.33;16.42;;;6.50;99.90;;;;;;4986653;28;20512;-67
2021/04/12 00:05:37;;;;;;;24.02;19.15;;;6.50;99.90;;;;;;4983745;28;20046;-63
2021/04/12 00:08:29;;;;;;;27.58;18.45;;;6.50;99.90;;;;;;4984408;28;20515;-64
2021/04/12 00:11:02;;;;;;;24.25;17.83;;;6.50;99.90;;;;;;4982211;28;20050;-63
2021/04/12 00:13:53;;;;;;;23.90;16.63;;;6.50;99.90;;;;;;4984803;28;20089;-64
2021/04/12 00:16:34;;;;;;;19.60;16.50;;;6.50;99.90;;;;;;4983522;28;20057;-65
2021/04/12 00:19:15;;;;;;;26.25;18.00;;;6.50;99.90;;;;;;4988041;28;20050;-63
2021/04/12 00:21:44;;;;;;;30.83;18.48;;;6.50;99.90;;;;;;4986169;28;20116;-64
2021/04/12 00:24:40;;;;;;;21.75;17.35;;;6.50;99.90;;;;;;4983665;28;20046;-63
2021/04/12 00:27:19;;;;;;;22.77;17.67;;;6.50;99.90;;;;;;4958303;28;20038;-62
2021/04/12 00:30:02;;;;;;;28.15;19.42;;;6.40;99.90;;;;;;4982378;28;20046;-64
2021/04/12 00:32:44;;;;;;;19.02;16.55;;;6.40;99.90;;;;;;4981664;28;20045;-64
2021/04/12 00:35:25;;;;;;;27.20;19.55;;;6.40;99.90;;;;;;4984507;28;20510;-65
2021/04/12 00:38:01;;;;;;;21.27;18.08;;;6.40;99.90;;;;;;4980961;28;20042;-65
2021/04/12 00:40:36;;;;;;;23.33;18.15;;;6.40;99.90;;;;;;4979845;28;20042;-62
2021/04/12 00:43:05;;;;;;;23.83;19.42;;;6.50;99.90;;;;;;4985605;28;20034;-62
2021/04/12 00:45:44;;;;;;;21.48;17.73;;;6.50;99.90;;;;;;4981660;28;20629;-64
2021/04/12 00:48:36;;;;;;;28.75;18.15;;;6.50;99.90;;;;;;4985404;28;20046;-63
2021/04/12 00:51:03;;;;;;;22.95;18.23;;;6.50;99.90;;;;;;4997839;28;20047;-63
2021/04/12 00:53:46;;;;;;;24.45;20.33;;;6.50;99.90;;;;;;5003624;28;20076;-67
2021/04/12 00:56:30;;;;;;;24.40;19.75;;;6.40;99.90;;;;;;4997072;28;20100;-65
2021/04/12 00:59:19;;;;;;;27.83;21.83;;;6.40;99.90;;;;;;4979695;28;20496;-67
2021/04/12 01:01:57;;;;;;;21.98;16.98;;;6.40;99.90;;;;;;4977857;28;20030;-64
2021/04/12 01:04:34;;;;;;;27.67;17.77;;;6.30;99.90;;;;;;4980657;28;20034;-64
2021/04/12 01:07:46;;;;;;;20.90;16.50;;;6.30;99.90;;;;;;4983638;28;20129;-65
2021/04/12 01:10:28;;;;;;;31.45;18.55;;;6.30;99.90;;;;;;4978237;28;20050;-65
2021/04/12 01:13:22;;;;;;;22.02;19.17;;;6.20;99.90;;;;;;5001232;28;20579;-66
2021/04/12 01:16:00;;;;;;;21.65;19.48;;;6.20;99.90;;;;;;4982888;28;20039;-63
2021/04/12 01:18:58;;;;;;;24.15;18.98;;;6.20;99.90;;;;;;4984039;28;20070;-65
2021/04/12 01:21:45;;;;;;;23.20;18.13;;;6.20;99.90;;;;;;4980362;28;20101;-64
2021/04/12 01:24:27;;;;;;;27.48;19.05;;;6.20;99.90;;;;;;4983801;28;20904;-64
2021/04/12 01:27:27;;;;;;;23.05;19.38;;;6.20;99.90;;;;;;4982233;28;20046;-65
2021/04/12 01:30:25;;;;;;;25.00;18.23;;;6.20;99.90;;;;;;4983656;28;20042;-62
2021/04/12 01:33:30;;;;;;;25.70;18.30;;;6.10;99.90;;;;;;4982785;28;20046;-63
2021/04/12 01:36:23;;;;;;;29.85;19.90;;;6.10;99.90;;;;;;4980580;28;20050;-68
2021/04/12 01:38:56;;;;;;;25.13;19.42;;;6.00;99.90;;;;;;4982425;28;20124;-64
2021/04/12 01:41:50;;;;;;;25.38;19.33;;;6.00;99.90;;;;;;4978343;28;20103;-64
2021/04/12 01:44:28;;;;;;;25.52;18.08;;;6.10;99.90;;;;;;4979588;28;20054;-62
2021/04/12 01:47:17;;;;;;;27.67;19.65;;;6.00;99.90;;;;;;4981852;28;20058;-65
2021/04/12 01:50:20;;;;;;;23.45;18.35;;;6.00;99.90;;;;;;5000159;28;20508;-64
2021/04/12 01:53:31;;;;;;;27.05;20.05;;;6.00;99.90;;;;;;4977409;28;20049;-64
2021/04/12 01:56:45;;;;;;;18.60;15.00;;;6.10;99.90;;;;;;4980548;28;20042;-66
2021/04/12 01:59:48;;;;;;;25.48;18.08;;;6.10;99.90;;;;;;4917094;29;20056;-65
2021/04/12 02:02:55;;;;;;;21.88;17.75;;;6.10;99.90;;;;;;4957671;28;20066;-63
2021/04/12 02:05:49;;;;;;;21.95;17.05;;;6.10;99.90;;;;;;4979174;28;20053;-66
2021/04/12 02:08:24;;;;;;;26.17;18.95;;;6.10;99.90;;;;;;4964387;28;20419;-63
2021/04/12 02:11:16;;;;;;;24.02;17.80;;;6.00;99.90;;;;;;4976835;28;20627;-66
2021/04/12 02:13:50;;;;;;;26.80;18.77;;;6.00;99.90;;;;;;4981821;28;20707;-63
2021/04/12 02:16:36;;;;;;;23.00;19.63;;;6.00;99.90;;;;;;4984628;28;20503;-66
2021/04/12 02:19:27;;;;;;;20.38;17.58;;;6.00;99.90;;;;;;4983294;28;20142;-65
2021/04/12 02:22:12;;;;;;;23.08;17.20;;;6.00;99.90;;;;;;4979541;28;20044;-62
2021/04/12 02:25:05;;;;;;;20.00;15.07;;;5.90;99.90;;;;;;4983747;28;20054;-64
2021/04/12 02:28:01;;;;;;;23.35;17.83;;;5.90;99.90;;;;;;4979560;28;20133;-66
2021/04/12 02:30:41;;;;;;;32.35;19.90;;;5.90;99.90;;;;;;4978832;28;20120;-64
2021/04/12 02:33:31;;;;;;;27.80;18.40;;;6.00;99.90;;;;;;4981454;28;20054;-64
2021/04/12 02:36:10;;;;;;;24.45;18.30;;;6.00;99.90;;;;;;4980367;28;20393;-63
2021/04/12 02:38:57;;;;;;;19.33;17.02;;;6.00;99.90;;;;;;4980857;28;20051;-63
2021/04/12 02:42:01;;;;;;;22.15;16.67;;;6.10;99.90;;;;;;4979414;28;20038;-64
2021/04/12 02:44:46;;;;;;;22.63;16.13;;;6.00;99.90;;;;;;4982234;28;20200;-63
2021/04/12 02:47:41;;;;;;;21.95;16.88;;;6.00;99.90;;;;;;4978284;28;20050;-62
2021/04/12 02:50:10;;;;;;;22.55;17.77;;;6.00;99.90;;;;;;4980046;28;20700;-63
2021/04/12 02:52:55;;;;;;;23.25;17.65;;;5.90;99.90;;;;;;4981598;28;20050;-64
2021/04/12 02:55:58;;;;;;;25.90;17.80;;;5.90;99.90;;;;;;4981360;28;20097;-62
2021/04/12 02:58:54;;;;;;;21.00;16.63;;;5.80;99.90;;;;;;4980225;28;20046;-68
2021/04/12 03:02:23;;;;;;;28.13;16.27;;;5.70;99.90;;;;;;4977739;28;20512;-68
2021/04/12 03:04:57;;;;;;;23.88;17.02;;;5.70;99.90;;;;;;4942180;28;20047;-68
2021/04/12 03:07:36;;;;;;;31.30;17.33;;;5.70;99.90;;;;;;4980734;28;20045;-64
2021/04/12 03:10:05;;;;;;;22.83;16.67;;;5.70;99.90;;;;;;4979563;28;20077;-63
2021/04/12 03:12:50;;;;;;;25.40;17.55;;;5.70;99.90;;;;;;4982898;28;20472;-63
2021/04/12 03:15:38;;;;;;;22.77;16.77;;;5.60;99.90;;;;;;4978797;28;20100;-64
2021/04/12 03:18:41;;;;;;;22.10;16.75;;;5.60;99.90;;;;;;4981452;28;20042;-65
2021/04/12 03:21:40;;;;;;;18.27;15.00;;;5.60;99.90;;;;;;4978570;28;20413;-62
2021/04/12 03:24:28;;;;;;;22.42;16.10;;;5.60;99.90;;;;;;4981276;28;20046;-64
2021/04/12 03:27:39;;;;;;;20.73;17.27;;;5.60;99.90;;;;;;4982543;28;20045;-62
2021/04/12 03:30:24;;;;;;;21.40;16.90;;;5.60;99.90;;;;;;4969969;28;20062;-64
2021/04/12 03:33:04;;;;;;;22.58;16.00;;;5.70;99.90;;;;;;4985964;28;20492;-63
2021/04/12 03:35:41;;;;;;;20.92;17.33;;;5.90;99.90;;;;;;4982540;28;20100;-65
2021/04/12 03:38:22;;;;;;;21.40;16.30;;;6.00;99.90;;;;;;4985254;28;20038;-64
2021/04/12 03:41:14;;;;;;;17.08;15.30;;;6.00;99.90;;;;;;4985084;28;20046;-62
2021/04/12 03:43:59;;;;;;;17.15;15.32;;;6.10;99.90;;;;;;4984286;28;20042;-64
2021/04/12 03:46:47;;;;;;;17.90;14.60;;;6.20;99.90;;;;;;4983581;28;20049;-63
2021/04/12 03:49:13;;;;;;;28.02;16.52;;;6.10;99.90;;;;;;4946304;28;20128;-63
2021/04/12 03:52:16;;;;;;;23.52;15.48;;;6.10;99.90;;;;;;4985711;28;20058;-64
2021/04/12 03:54:51;;;;;;;21.08;15.35;;;6.10;99.90;;;;;;4982861;28;20710;-63
2021/04/12 03:57:23;;;;;;;22.67;13.77;;;6.10;99.90;;;;;;4982916;28;20122;-65
2021/04/12 04:00:11;;;;;;;19.67;14.90;;;6.00;99.90;;;;;;4983290;28;20116;-65
2021/04/12 04:02:56;;;;;;;20.83;15.10;;;6.00;99.90;;;;;;4980937;28;20113;-62
2021/04/12 04:05:57;;;;;;;24.05;15.90;;;6.00;99.90;;;;;;4984035;28;20042;-66
2021/04/12 04:08:29;;;;;;;21.80;15.60;;;5.90;99.90;;;;;;4996573;28;20054;-64
2021/04/12 04:11:24;;;;;;;19.58;16.00;;;5.90;99.90;;;;;;4982533;28;20534;-64
2021/04/12 04:13:53;;;;;;;20.30;14.75;;;5.90;99.90;;;;;;4977995;28;20051;-64
2021/04/12 04:16:19;;;;;;;22.55;16.13;;;5.90;99.90;;;;;;4981591;28;20057;-64
2021/04/12 04:19:13;;;;;;;23.13;15.55;;;5.90;99.90;;;;;;4986546;28;20504;-63
2021/04/12 04:21:51;;;;;;;22.02;15.90;;;5.90;99.90;;;;;;4983346;28;20038;-63
2021/04/12 04:24:42;;;;;;;16.65;14.10;;;5.90;99.90;;;;;;4981406;28;20679;-63
2021/04/12 04:27:34;;;;;;;18.65;15.95;;;5.90;99.90;;;;;;4981402;28;20132;-62
2021/04/12 04:30:19;;;;;;;18.60;13.68;;;5.90;99.90;;;;;;4979310;28;20055;-66
2021/04/12 04:33:22;;;;;;;16.38;14.48;;;5.90;99.90;;;;;;4985020;28;20038;-65
2021/04/12 04:36:01;;;;;;;19.95;14.30;;;6.00;99.90;;;;;;4983725;28;20050;-62
2021/04/12 04:38:35;;;;;;;20.85;15.13;;;6.00;99.90;;;;;;4980954;28;20766;-63
2021/04/12 04:41:47;;;;;;;20.02;16.23;;;6.00;99.90;;;;;;4981595;28;20053;-65
2021/04/12 04:44:37;;;;;;;22.17;15.30;;;6.00;99.90;;;;;;4981674;28;20420;-67
2021/04/12 04:47:25;;;;;;;20.67;14.43;;;6.10;99.90;;;;;;4986601;28;20049;-64
2021/04/12 04:50:20;;;;;;;17.70;15.57;;;6.10;99.90;;;;;;4984096;28;20153;-64
2021/04/12 04:53:21;;;;;;;21.88;16.52;;;6.20;99.90;;;;;;4960459;28;20135;-65
2021/04/12 04:56:00;;;;;;;16.48;14.13;;;6.30;99.90;;;;;;4981813;28;20145;-65
2021/04/12 04:58:33;;;;;;;21.70;14.40;;;6.30;99.90;;;;;;4986002;28;20054;-65
2021/04/12 05:01:19;;;;;;;20.10;15.48;;;6.40;99.90;;;;;;4980158;28;20042;-63
2021/04/12 05:04:19;;;;;;;24.83;14.23;;;6.40;99.90;;;;;;4987666;28;20393;-65
2021/04/12 05:07:17;;;;;;;19.73;15.65;;;6.40;99.90;;;;;;4980734;28;20645;-64
2021/04/12 05:10:06;;;;;;;20.90;14.45;;;6.40;99.90;;;;;;4978858;28;20661;-64
2021/04/12 05:12:57;;;;;;;17.90;14.40;;;6.40;99.90;;;;;;4981220;28;20043;-64
2021/04/12 05:15:24;;;;;;;23.25;16.50;;;6.50;99.90;;;;;;4982127;28;20051;-65
2021/04/12 05:18:02;;;;;;;20.17;14.40;;;6.50;99.90;;;;;;4985013;28;20077;-64
2021/04/12 05:20:51;;;;;;;19.75;15.57;;;6.50;99.90;;;;;;4981301;28;20050;-64
2021/04/12 05:23:39;;;;;;;26.90;18.95;;;6.60;99.90;;;;;;4982611;28;20050;-66
2021/04/12 05:26:23;;;;;;;20.17;15.50;;;6.60;99.90;;;;;;4985239;28;20096;-63
2021/04/12 05:29:15;;;;;;;19.25;14.80;;;6.70;99.90;;;;;;4983838;28;20050;-63
2021/04/12 05:32:08;;;;;;;18.92;13.65;;;6.80;99.90;;;;;;4984280;28;20168;-65
2021/04/12 05:34:48;;;;;;;22.35;15.65;;;6.90;99.90;;;;;;4975994;28;20054;-66
2021/04/12 05:37:34;;;;;;;20.75;13.50;;;6.90;99.90;;;;;;4978704;28;20045;-65
2021/04/12 05:40:25;;;;;;;20.88;14.25;;;7.00;99.90;;;;;;4978435;28;20054;-67
2021/04/12 05:43:07;;;;;;;25.70;13.63;;;7.10;99.90;;;;;;4981248;28;20058;-68
2021/04/12 05:46:04;;;;;;;22.60;13.75;;;7.10;99.90;;;;;;4979560;28;20057;-68
2021/04/12 05:48:40;;;;;;;16.02;12.82;;;7.20;99.90;;;;;;4978023;28;20058;-63
2021/04/12 05:51:12;;;;;;;31.95;14.80;;;7.20;99.90;;;;;;4982197;28;20039;-64
2021/04/12 05:54:00;;;;;;;18.33;13.00;;;7.30;99.90;;;;;;4980302;28;20046;-63
2021/04/12 05:56:59;;;;;;;36.38;16.73;;;7.40;99.90;;;;;;4980983;28;20070;-63
2021/04/12 05:59:50;;;;;;;17.27;13.27;;;7.50;99.90;;;;;;4981495;28;20050;-65
2021/04/12 06:02:26;;;;;;;19.17;12.68;;;7.60;99.90;;;;;;4980749;28;20572;-65
2021/04/12 06:05:05;;;;;;;15.73;11.93;;;7.60;99.90;;;;;;4980203;28;20146;-64
2021/04/12 06:07:37;;;;;;;19.33;12.73;;;7.70;99.90;;;;;;4981251;28;20543;-65
2021/04/12 06:10:22;;;;;;;16.90;13.30;;;7.80;99.90;;;;;;4978687;28;20046;-65
2021/04/12 06:13:08;;;;;;;14.80;11.30;;;7.90;99.90;;;;;;4995652;28;20042;-65
2021/04/12 06:15:58;;;;;;;18.25;12.43;;;8.00;99.90;;;;;;4980793;28;20054;-64
2021/04/12 06:19:02;;;;;;;15.98;11.00;;;8.00;99.90;;;;;;4979673;28;20042;-67
2021/04/12 06:22:06;;;;;;;20.85;12.63;;;8.20;99.90;;;;;;4981152;28;20046;-64
2021/04/12 06:24:57;;;;;;;13.75;10.77;;;8.30;99.90;;;;;;4975389;28;20046;-64
2021/04/12 06:28:02;;;;;;;17.80;14.13;;;8.50;99.90;;;;;;4981185;28;20459;-68
2021/04/12 06:30:50;;;;;;;14.05;12.10;;;8.60;99.90;;;;;;4977338;28;20038;-64
2021/04/12 06:33:41;;;;;;;19.98;14.18;;;8.60;99.90;;;;;;4981728;28;20042;-67
2021/04/12 06:36:32;;;;;;;19.40;12.52;;;8.70;99.90;;;;;;4978614;28;20050;-65
2021/04/12 06:39:32;;;;;;;25.17;14.77;;;8.80;99.90;;;;;;4981310;28;20045;-65
2021/04/12 06:42:04;;;;;;;27.73;14.38;;;8.80;99.90;;;;;;4981550;28;20503;-64
2021/04/12 06:44:58;;;;;;;26.92;16.60;;;8.60;99.90;;;;;;4980811;28;20038;-63
2021/04/12 06:47:39;;;;;;;23.13;18.45;;;8.50;99.90;;;;;;4980243;28;20042;-64
2021/04/12 06:50:14;;;;;;;26.48;19.13;;;8.50;99.90;;;;;;4975804;28;20042;-66
2021/04/12 06:53:05;;;;;;;25.73;18.38;;;8.50;99.90;;;;;;4980597;28;20107;-63
2021/04/12 06:55:44;;;;;;;32.13;20.05;;;8.50;99.90;;;;;;4980237;28;20049;-64
2021/04/12 06:58:38;;;;;;;26.60;18.65;;;8.60;99.90;;;;;;4979458;28;20049;-66
2021/04/12 07:01:29;;;;;;;31.35;21.95;;;8.60;99.90;;;;;;4981639;28;20046;-67
2021/04/12 07:04:34;;;;;;;26.80;19.13;;;8.60;99.90;;;;;;4983454;28;20084;-67
2021/04/12 07:07:37;;;;;;;29.70;21.95;;;8.60;99.90;;;;;;4960335;28;20157;-64
2021/04/12 07:10:40;;;;;;;31.17;19.42;;;8.70;99.90;;;;;;4972320;28;20046;-67
2021/04/12 07:13:19;;;;;;;28.83;20.25;;;8.70;99.90;;;;;;4981324;28;20057;-68
2021/04/12 07:15:54;;;;;;;31.35;22.17;;;8.60;99.90;;;;;;4983101;28;20060;-63
2021/04/12 07:18:48;;;;;;;37.72;26.20;;;8.20;99.90;;;;;;4981350;28;20652;-63
2021/04/12 07:22:08;;;;;;;31.75;19.27;;;7.60;99.90;;;;;;4982542;28;20046;-64
2021/04/12 07:24:50;;;;;;;23.27;17.58;;;7.50;99.90;;;;;;4939216;28;20054;-63
2021/04/12 07:27:45;;;;;;;28.90;18.20;;;7.50;99.90;;;;;;4976983;28;20050;-64
2021/04/12 07:30:35;;;;;;;24.83;16.98;;;7.60;99.90;;;;;;4981047;28;20165;-65
2021/04/12 07:33:33;;;;;;;28.88;17.75;;;7.70;99.90;;;;;;4981992;28;20592;-66
2021/04/12 07:36:33;;;;;;;22.15;13.07;;;7.80;99.90;;;;;;4984192;28;20046;-66
2021/04/12 07:39:38;;;;;;;22.33;12.98;;;7.80;99.90;;;;;;4982330;28;20038;-67
2021/04/12 07:42:41;;;;;;;21.67;12.07;;;7.80;99.90;;;;;;4982717;28;20535;-66
2021/04/12 07:45:54;;;;;;;22.02;11.35;;;7.90;99.90;;;;;;4982586;28;20046;-64
2021/04/12 07:48:37;;;;;;;15.82;9.43;;;7.90;99.90;;;;;;4978587;28;20043;-64
2021/04/12 07:51:28;;;;;;;15.57;7.75;;;7.90;99.90;;;;;;4981545;28;20046;-63
2021/04/12 07:54:32;;;;;;;14.95;6.93;;;7.70;99.90;;;;;;4976542;28;20120;-65
2021/04/12 07:57:24;;;;;;;12.88;6.85;;;7.70;99.90;;;;;;4983613;28;20100;-64
2021/04/12 08:00:11;;;;;;;12.63;6.60;;;7.40;99.90;;;;;;4982829;28;20039;-64
2021/04/12 08:02:57;;;;;;;14.18;8.02;;;7.30;99.90;;;;;;4982192;28;20054;-66
2021/04/12 08:05:58;;;;;;;13.57;5.80;;;7.30;99.90;;;;;;4983075;28;20065;-67
2021/04/12 08:08:34;;;;;;;15.77;7.60;;;7.10;99.90;;;;;;4978908;28;20412;-64
2021/04/12 08:11:51;;;;;;;12.32;7.40;;;7.10;99.90;;;;;;4983383;28;20050;-66
2021/04/12 08:14:55;;;;;;;10.40;6.65;;;6.80;99.90;;;;;;4980242;28;20058;-65
2021/04/12 08:18:11;;;;;;;23.73;8.60;;;6.60;99.90;;;;;;4978766;28;20065;-64
2021/04/12 08:21:20;;;;;;;9.65;6.25;;;6.40;99.90;;;;;;4979030;28;20054;-64
2021/04/12 08:24:06;;;;;;;10.48;6.35;;;6.30;99.90;;;;;;4981133;28;20054;-64
2021/04/12 08:26:54;;;;;;;11.75;5.53;;;6.30;99.90;;;;;;4980133;28;20125;-62
2021/04/12 08:29:45;;;;;;;12.23;6.45;;;6.20;99.90;;;;;;4981435;28;20756;-62
2021/04/12 08:32:27;;;;;;;15.65;7.70;;;6.10;99.90;;;;;;4976683;28;22456;-68
2021/04/12 08:35:31;;;;;;;9.65;6.50;;;6.10;99.90;;;;;;4979996;28;20116;-65
2021/04/12 08:38:25;;;;;;;11.93;6.70;;;6.10;99.90;;;;;;4980126;28;20121;-66
2021/04/12 08:41:19;;;;;;;18.17;6.18;;;6.10;99.90;;;;;;4994232;28;20456;-66
2021/04/12 08:44:04;;;;;;;7.95;5.38;;;6.10;99.90;;;;;;4982315;28;20081;-66
2021/04/12 08:47:05;;;;;;;13.13;5.43;;;6.10;99.90;;;;;;4979789;28;20099;-64
2021/04/12 08:49:40;;;;;;;10.27;5.45;;;6.00;99.90;;;;;;4996488;28;20121;-63
2021/04/12 08:52:26;;;;;;;12.50;6.45;;;6.00;99.90;;;;;;4979220;28;20058;-62
2021/04/12 08:55:03;;;;;;;12.07;5.32;;;5.90;99.90;;;;;;4996786;28;20046;-68
2021/04/12 08:57:57;;;;;;;10.68;4.97;;;5.80;99.90;;;;;;4981255;28;20707;-63
2021/04/12 09:00:34;;;;;;;12.70;6.00;;;5.70;99.90;;;;;;4977538;28;20061;-66
2021/04/12 09:03:22;;;;;;;8.43;4.30;;;5.70;99.90;;;;;;4980990;28;20053;-67
2021/04/12 09:06:06;;;;;;;8.40;5.53;;;5.60;99.90;;;;;;4982473;28;20751;-64
2021/04/12 09:08:41;;;;;;;9.85;6.95;;;5.60;99.90;;;;;;4979167;28;20120;-65
2021/04/12 09:11:38;;;;;;;11.77;7.97;;;5.60;99.90;;;;;;4980663;28;20046;-64
2021/04/12 09:14:42;;;;;;;8.57;4.97;;;5.60;99.90;;;;;;4978737;28;20451;-64
2021/04/12 09:17:39;;;;;;;8.13;5.43;;;5.60;99.90;;;;;;4978243;28;20057;-66
2021/04/12 09:20:19;;;;;;;10.40;5.38;;;5.70;99.90;;;;;;4977488;28;20192;-64
2021/04/12 09:23:13;;;;;;;12.98;7.53;;;5.70;99.90;;;;;;4979027;28;20400;-63
2021/04/12 09:26:07;;;;;;;14.57;5.25;;;5.80;99.90;;;;;;4986304;28;20066;-67
2021/04/12 09:29:02;;;;;;;9.32;4.88;;;6.00;99.90;;;;;;4981347;28;20049;-65
2021/04/12 09:32:10;;;;;;;7.38;5.47;;;6.00;99.90;;;;;;4980345;28;20172;-68
2021/04/12 09:35:01;;;;;;;8.50;5.20;;;6.00;99.90;;;;;;4995413;28;20058;-65
2021/04/12 09:38:15;;;;;;;5.53;3.80;;;6.00;99.90;;;;;;4978518;28;20054;-65
2021/04/12 09:40:56;;;;;;;10.77;4.80;;;6.10;99.90;;;;;;4944099;28;20047;-63
2021/04/12 09:43:41;;;;;;;;;;;6.10;99.90;;;;;;4977495;28;20053;-67
2021/04/12 09:46:19;;;;;;;9.35;5.15;;;6.20;99.90;;;;;;4978682;28;20022;-66
2021/04/12 09:48:48;;;;;;;10.50;5.50;;;6.20;99.90;;;;;;4979856;28;20062;-66
2021/04/12 09:51:45;;;;;;;6.57;4.68;;;6.30;99.90;;;;;;4981014;28;20057;-64
2021/04/12 09:54:30;;;;;;;9.35;4.80;;;6.40;99.90;;;;;;4980395;28;20037;-64
2021/04/12 09:57:15;;;;;;;5.72;4.47;;;6.50;99.90;;;;;;4979526;28;20046;-66
2021/04/12 09:59:57;;;;;;;7.28;3.67;;;6.60;99.90;;;;;;4980868;28;20736;-65
2021/04/12 10:02:41;;;;;;;7.50;4.57;;;6.50;99.90;;;;;;4978178;28;20046;-63
2021/04/12 10:05:27;;;;;;;5.78;3.92;;;6.50;99.90;;;;;;4980800;28;20042;-67
2021/04/12 10:08:24;;;;;;;12.55;6.07;;;6.40;99.90;;;;;;4976005;28;20050;-64
2021/04/12 10:11:11;;;;;;;4.90;3.78;;;6.50;99.90;;;;;;4980724;28;20057;-64
2021/04/12 10:14:03;;;;;;;5.85;4.43;;;6.50;99.90;;;;;;4979317;28;20101;-67
2021/04/12 10:16:35;;;;;;;4.43;3.97;;;6.50;99.90;;;;;;4979902;28;20532;-66
2021/04/12 10:19:22;;;;;;;5.65;3.70;;;6.50;99.90;;;;;;4981289;28;20065;-66
2021/04/12 10:21:55;;;;;;;6.70;3.80;;;6.50;99.90;;;;;;4982455;28;20057;-64
2021/04/12 10:24:29;;;;;;;8.60;4.30;;;6.60;99.90;;;;;;4978428;28;20265;-65
2021/04/12 10:27:05;;;;;;;12.30;3.78;;;6.70;99.90;;;;;;4981938;28;20097;-66
2021/04/12 10:29:47;;;;;;;8.43;4.03;;;6.80;99.90;;;;;;4980512;28;20038;-63
2021/04/12 10:32:30;;;;;;;4.50;3.28;;;6.90;99.90;;;;;;4978455;28;20386;-63
2021/04/12 10:35:00;;;;;;;7.55;3.40;;;6.90;99.90;;;;;;4980925;28;20061;-63
2021/04/12 10:38:03;;;;;;;5.35;3.08;;;6.90;99.90;;;;;;4981437;28;20619;-65
2021/04/12 10:40:46;;;;;;;4.32;3.83;;;6.80;99.90;;;;;;4979130;28;20105;-64
2021/04/12 10:43:50;;;;;;;6.30;3.95;;;6.80;99.90;;;;;;4981479;28;20127;-67
2021/04/12 10:46:22;;;;;;;5.10;3.40;;;7.00;99.90;;;;;;4981059;28;20053;-66
2021/04/12 10:48:55;;;;;;;9.73;4.15;;;7.00;99.90;;;;;;4982118;28;20069;-63
2021/04/12 10:51:32;;;;;;;7.38;4.20;;;6.90;99.90;;;;;;4980108;28;20120;-67
2021/04/12 10:54:17;;;;;;;8.35;4.00;;;6.90;99.90;;;;;;4977959;28;20045;-65
2021/04/12 10:56:52;;;;;;;6.60;3.42;;;6.90;99.90;;;;;;4981365;28;20463;-65
2021/04/12 10:59:21;;;;;;;7.53;3.63;;;7.00;99.90;;;;;;4982289;28;20046;-66
2021/04/12 11:02:19;;;;;;;6.32;3.50;;;7.00;99.90;;;;;;4980243;28;20055;-63
2021/04/12 11:05:10;;;;;;;4.47;3.45;;;7.00;99.90;;;;;;4981396;28;20056;-63
2021/04/12 11:07:49;;;;;;;3.40;2.65;;;6.80;99.90;;;;;;4981171;28;20046;-65
2021/04/12 11:10:33;;;;;;;4.72;3.55;;;6.70;99.90;;;;;;4995474;28;20038;-62
2021/04/12 11:13:11;;;;;;;5.80;3.63;;;6.70;99.90;;;;;;4980156;28;20049;-64
2021/04/12 11:16:14;;;;;;;5.57;2.80;;;6.60;99.90;;;;;;4980822;28;20046;-66
2021/04/12 11:18:52;;;;;;;4.68;2.63;;;6.60;99.90;;;;;;4980191;28;20117;-64
2021/04/12 11:21:26;;;;;;;2.47;2.17;;;6.50;99.90;;;;;;4977349;28;20046;-65
2021/04/12 11:24:06;;;;;;;3.13;2.70;;;6.50;99.90;;;;;;4980119;28;20100;-64
2021/04/12 11:26:35;;;;;;;5.13;1.88;;;6.60;99.90;;;;;;4981630;28;20688;-64
2021/04/12 11:29:18;;;;;;;3.53;1.67;;;6.80;99.90;;;;;;4980656;28;20066;-69
2021/04/12 11:32:14;;;;;;;8.05;3.65;;;7.00;99.90;;;;;;4974998;28;20062;-63
2021/04/12 11:35:02;;;;;;;3.63;1.00;;;7.10;99.90;;;;;;4959339;28;20473;-66
2021/04/12 11:38:05;;;;;;;3.28;1.85;;;7.30;99.90;;;;;;4959282;28;20605;-66
2021/04/12 11:40:36;;;;;;;1.60;1.00;;;7.50;99.90;;;;;;4976665;28;20060;-65
2021/04/12 11:43:11;;;;;;;3.78;1.42;;;7.80;99.90;;;;;;4980947;28;20519;-63
2021/04/12 11:45:53;;;;;;;1.20;1.10;;;7.60;99.90;;;;;;4980244;28;20421;-67
2021/04/12 11:48:25;;;;;;;0.98;0.90;;;7.60;99.90;;;;;;4981613;28;20050;-64
2021/04/12 11:51:19;;;;;;;2.80;0.90;;;7.70;99.90;;;;;;4982633;28;20148;-66
2021/04/12 11:53:54;;;;;;;1.95;1.05;;;7.90;99.90;;;;;;4983589;28;20050;-66
2021/04/12 11:56:55;;;;;;;2.20;1.00;;;8.00;99.90;;;;;;4960495;28;20043;-66
2021/04/12 11:59:41;;;;;;;1.80;0.63;;;8.10;99.90;;;;;;4963829;28;20098;-68
2021/04/12 12:02:21;;;;;;;1.42;1.05;;;8.40;99.90;;;;;;4961743;28;20066;-64
2021/04/12 12:04:55;;;;;;;4.80;0.73;;;8.60;99.90;;;;;;4963006;28;20042;-66
2021/04/12 12:07:47;;;;;;;1.13;0.68;;;8.50;99.90;;;;;;4963470;28;20145;-65
2021/04/12 12:10:40;;;;;;;1.80;1.20;;;8.40;99.90;;;;;;4978309;28;20398;-66
2021/04/12 12:13:33;;;;;;;1.20;0.63;;;8.10;99.90;;;;;;4984770;28;20554;-67
2021/04/12 12:16:27;;;;;;;1.23;1.13;;;7.90;99.90;;;;;;4976233;28;20169;-66
2021/04/12 12:19:15;;;;;;;2.08;1.02;;;7.90;99.90;;;;;;4982629;28;20445;-65
2021/04/12 12:22:07;;;;;;;0.73;0.45;;;7.90;99.90;;;;;;4982562;28;20124;-63
2021/04/12 12:25:05;;;;;;;0.90;0.77;;;8.00;99.90;;;;;;4979810;28;20053;-66
2021/04/12 12:27:39;;;;;;;2.60;1.48;;;7.90;99.90;;;;;;4984277;28;20050;-64
2021/04/12 12:30:20;;;;;;;6.03;0.80;;;8.00;99.90;;;;;;4979051;28;20937;-64
2021/04/12 12:33:04;;;;;;;3.05;1.40;;;8.00;99.90;;;;;;4981621;28;20038;-65
2021/04/12 12:36:05;;;;;;;1.88;0.93;;;8.00;99.90;;;;;;4980040;28;20043;-66
2021/04/12 12:38:40;;;;;;;;;;;8.10;99.90;;;;;;4973955;28;20069;-66
2021/04/12 12:41:19;;;;;;;0.60;0.60;;;8.30;99.90;;;;;;4982605;28;19934;-66
2021/04/12 12:43:48;;;;;;;4.28;0.93;;;8.20;99.90;;;;;;4982428;28;20144;-65
2021/04/12 12:46:23;;;;;;;2.15;0.73;;;8.10;99.90;;;;;;4979694;28;20049;-66
2021/04/12 12:48:54;;;;;;;2.17;0.75;;;8.30;99.90;;;;;;4982753;28;20600;-65
2021/04/12 12:51:32;;;;;;;1.40;0.95;;;8.40;99.90;;;;;;4982960;28;20072;-64
2021/04/12 12:54:22;;;;;;;0.98;0.63;;;8.30;99.90;;;;;;4977308;28;20157;-67
2021/04/12 12:56:50;;;;;;;1.40;0.65;;;8.20;99.90;;;;;;4997482;28;20731;-64
2021/04/12 12:59:26;;;;;;;3.90;0.68;;;8.00;99.90;;;;;;4988500;28;20520;-67
2021/04/12 13:01:55;;;;;;;2.80;0.70;;;7.90;99.90;;;;;;4983950;28;20053;-66
2021/04/12 13:04:27;;;;;;;1.35;0.80;;;8.20;99.90;;;;;;4981999;28;20141;-65
2021/04/12 13:06:57;;;;;;;5.80;0.90;;;8.40;99.90;;;;;;4982707;28;20070;-65
2021/04/12 13:09:31;;;;;;;0.93;0.77;;;8.60;99.90;;;;;;4982114;28;20445;-64
2021/04/12 13:12:11;;;;;;;0.90;0.40;;;8.70;99.90;;;;;;4982194;28;20488;-67
2021/04/12 13:14:42;;;;;;;;;;;8.70;99.90;;;;;;4987291;28;20687;-68
2021/04/12 13:17:27;;;;;;;0.77;0.55;;;8.90;99.90;;;;;;4983689;28;19922;-64
2021/04/12 13:20:01;;;;;;;1.77;0.68;;;8.80;99.90;;;;;;4977863;28;20049;-67
2021/04/12 13:22:31;;;;;;;3.08;0.60;;;8.80;99.90;;;;;;4980341;28;20053;-65
2021/04/12 13:25:16;;;;;;;1.02;0.52;;;8.70;99.90;;;;;;4980887;28;20428;-68
2021/04/12 13:27:46;;;;;;;0.55;0.55;;;8.60;99.90;;;;;;4984713;28;20476;-65
2021/04/12 13:30:19;;;;;;;0.50;0.50;;;8.50;99.90;;;;;;4980171;28;20054;-64
2021/04/12 13:32:58;;;;;;;2.70;0.70;;;8.40;99.90;;;;;;4982543;28;20052;-68
2021/04/12 13:35:31;;;;;;;2.42;0.63;;;8.20;99.90;;;;;;4977829;28;20536;-68
2021/04/12 13:38:01;;;;;;;1.73;0.73;;;8.00;99.90;;;;;;4983973;28;20057;-72
2021/04/12 13:40:46;;;;;;;2.03;0.60;;;8.10;99.90;;;;;;4980522;28;20771;-68
2021/04/12 13:43:14;;;;;;;6.93;1.90;;;8.10;99.90;;;;;;4985814;28;20046;-67
2021/04/12 13:45:45;;;;;;;2.10;0.90;;;8.10;99.90;;;;;;4978888;28;20129;-68
2021/04/12 13:48:18;;;;;;;3.35;0.75;;;8.00;99.90;;;;;;4981063;28;20060;-66
2021/04/12 13:51:04;;;;;;;1.90;1.13;;;8.00;99.90;;;;;;4981258;28;20057;-65
2021/04/12 13:53:48;;;;;;;3.88;1.15;;;7.90;99.90;;;;;;4982809;28;20058;-68
2021/04/12 13:56:19;;;;;;;0.60;0.60;;;8.00;99.90;;;;;;4980953;28;20046;-68
2021/04/12 13:58:51;;;;;;;2.40;0.73;;;8.00;99.90;;;;;;4982076;28;20066;-65
2021/04/12 14:01:22;;;;;;;0.50;0.50;;;7.90;99.90;;;;;;4984038;28;20639;-67
2021/04/12 14:03:57;;;;;;;;;;;7.90;99.90;;;;;;4983844;28;20057;-69
2021/04/12 14:06:31;;;;;;;1.48;0.68;;;7.70;99.90;;;;;;4980635;28;20349;-66
2021/04/12 14:09:13;;;;;;;2.65;0.85;;;7.70;99.90;;;;;;4980716;28;20066;-71
2021/04/12 14:12:04;;;;;;;2.55;1.02;;;7.60;99.90;;;;;;4982455;28;20050;-66
2021/04/12 14:14:54;;;;;;;1.70;0.82;;;7.60;99.90;;;;;;4978611;28;20039;-65
2021/04/12 14:17:31;;;;;;;0.57;0.45;;;7.70;99.90;;;;;;4959980;28;20053;-65
2021/04/12 14:20:15;;;;;;;2.30;2.03;;;7.60;99.90;;;;;;4978931;28;20129;-67
2021/04/12 14:22:50;;;;;;;2.42;0.55;;;7.60;99.90;;;;;;4982298;28;20096;-67